Impacts TAF Board INFO
FOR SITUATIONAL AWARENESS. NOT TO BE USED FOR FLIGHT PLANNING PURPOSES.
IDs:

KGTR - Golden Triangle Arpt, MS, US

Issued at 2340 UTC 21 Apr 2018
Updated at 0431 UTC 22 Apr 2018
Potential Impact None Slight Moderate High
Time0356Z 22/05Z 22/06Z 22/07Z 22/08Z 22/09Z 22/10Z 22/11Z 22/12Z 22/13Z 22/14Z 22/15Z 22/16Z 22/17Z>>
Type OBS PRVL PRVL PRVL PRVL PRVL PRVL PRVL PRVL PRVL PRVL PRVL PRVL PRVL
VIS 10 >6 >6 >6 >6 >6 >6 >6 >6 6 6 6 6 6
CIG -- 70 70 15 15 15 15 15 15 7 7 7 7 7
Cover CLR BKN BKN OVC OVC OVC OVC OVC OVC OVC OVC OVC OVC OVC
FltCat VFR VFR VFR MVFR MVFR MVFR MVFR MVFR MVFR IFR IFR IFR IFR IFR
WX -- -- -- VCSH VCSH VCSH VCSH VCSH VCSH SHRA VCTS SHRA VCTS SHRA VCTS SHRA VCTS SHRA VCTS
WDir 100 140 140 140 140 140 140 140 140 150 150 150 150 150
WSpd 9 13 13 16 16 16 16 16 16 18 18 18 18 18
WGst -- -- -- 24 24 24 24 24 24 26 26 26 26 26

Raw TAF
KGTR 212340Z 2200/2224 14013KT P6SM BKN070 BKN120
  FM220700 14016G24KT P6SM VCSH BKN015 OVC025
  FM221300 15018G26KT 6SM SHRA VCTS BKN007CB OVC020


Raw METAR
KGTR 220356Z AUTO 10009KT 10SM CLR 21/13 A3010 RMK AO2 SLP193 T02060128
KGTR 220256Z AUTO 13007KT 10SM CLR 21/13 A3012 RMK AO2 SLP200 T02060133 53004
KGTR 220156Z AUTO 12012KT 10SM FEW047 OVC070 22/13 A3011 RMK AO2 SLP196 T02220133

METAR Board
Radar Display
Forecast Discussion

FOR SITUATIONAL AWARENESS. NOT TO BE USED FOR FLIGHT PLANNING PURPOSES.